Norway Center, South Dakota
Current Conditions -  °F | °C
As of 4:35 AM on Monday 20 Oct 2014 (Local Time) from KORC Reporting Station
Clear Clear  
Wind Chill: 11°   Ceiling: Unl
Heat Index: 11°   Visibility: 10mi
Dew Point:   Wind: 5mph
Humidity: 62%   Direction: 350°N
Pressure: 30.01"   Gusts: NA
Location:  43.1282°N, 96.5674°W
Report Text: KORC 200935Z AUTO 35004KT 10SM CLR 11/04 A3001 RMK AO2
Loading
Personal Weather Stations






























Interactive Weather Map
Tropical Storm Tracking
New forecast layout! Learn more

10-Day Weather Forecast

Advertisements
Track Severe Weather on mobile